x

Buzzards Bay, Ma (buzm3) Weather Station

10:00pm - Sat 23rd Jul 2016 All times are EDT. -4 hours from GMT.

  • Wind
    15mph, 16mph gusts
  • Air Temp 72°f
  • Sea Pressure 1010.3mb
  • Buzzards Bay, Ma
  • Buzzards Bay, Ma

More Historic Weather Station data

Upgrade to MSW Pro to gain access to the past 30 days of data for over 8000 Wavebouys and Weather Stations around the globe.

Join Pro

Comparision Forecast

View Surf forecast
   
Sat 07/23 10:00pm 15 16 mph 1010.3mb 72f
9:00pm 21 23 mph 1009mb 77f
8:00pm 24 25 mph 1008mb 77f
7:00pm 21 22 mph 1007.5mb 75f
6:00pm 25 26 mph 1007.2mb 77f
5:00pm 22 23 mph 1007.5mb 76f
4:00pm 16 17 mph 1007.7mb 74f
3:00pm 26 28 mph 1007.7mb 76f
2:00pm 20 21 mph 1008.3mb 74f
1:00pm 10 11 mph 1008.5mb 72f
12:00pm 17 18 mph 1008.8mb 73f
11:00am 13 14 mph 1008.7mb 75f
10:00am 11 13 mph 1008.6mb 71f
9:00am 16 17 mph 1008.5mb 72f
8:00am 10 11 mph 1008.9mb 71f
7:00am 9 10 mph 1008.8mb 71f
6:00am 15
mph
1008.5mb 71f
5:00am 14 16 mph 1008.4mb 69f
4:00am 16 17 mph 1008.3mb 71f
3:00am 10 11 mph 1008.8mb 74f
2:00am 14 16 mph 1009.6mb 73f
1:00am 11 14 mph 1009.6mb 70f
12:00am 17 18 mph 1009.4mb 75f
Fri 07/22 11:00pm 15 16 mph 1009.9mb 73f
10:00pm 18 20 mph 1009.7mb 73f
9:00pm 21 23 mph 1009.4mb 73f
8:00pm 26 28 mph 1009mb 73f
7:00pm 30 33 mph 1009mb 73f
6:00pm 31 33 mph 1009.5mb 73f
5:00pm 30 32 mph 1010mb 73f
4:00pm 31 33 mph 1010.2mb 73f
3:00pm 32 33 mph 1010.8mb 73f
2:00pm 30 33 mph 1011.3mb 73f
1:00pm 30 31 mph 1012.1mb 73f
12:00pm 25 29 mph 1012.7mb 72f
11:00am 26 29 mph 1013.3mb 72f
10:00am 28 29 mph 1013.4mb 72f
9:00am 24 25 mph 1014.2mb 71f
8:00am 25 29 mph 1014.7mb 71f
7:00am 24 28 mph 1015.4mb 71f
6:00am 26 28 mph 1015.3mb 71f
5:00am 26 29 mph 1015.5mb 71f
4:00am 22 23 mph 1015.6mb 71f
3:00am 22 23 mph 1016.1mb 71f
2:00am 18 20 mph 1016.4mb 71f
1:00am 17 18 mph 1016.7mb 71f
12:00am 18 20 mph 1017.4mb 71f
Thu 07/21 11:00pm 16 18 mph 1017.6mb 70f
10:00pm 18 20 mph 1018.1mb 71f
9:00pm 20 21 mph 1017.8mb 72f
8:00pm 23 25 mph 1017.6mb 72f
7:00pm 24 25 mph 1017.7mb 72f
6:00pm 25 28 mph 1018.2mb 72f
5:00pm 24 26 mph 1018.6mb 72f
4:00pm 22 24 mph 1018.8mb 72f
3:00pm 20 22 mph 1019.1mb 71f
2:00pm 17
mph
1019.6mb 70f
1:00pm 16
mph
1020.2mb 70f
12:00pm 13 14 mph 1021.3mb 70f
11:00am 10
mph
1021.3mb 70f
10:00am 10 11 mph 1021.3mb 70f
9:00am 7 8 mph 1021.5mb 68f
8:00am 6 7 mph 1021.8mb 69f
7:00am 8
mph
1021.7mb 69f
6:00am 9
mph
1021.3mb 69f
5:00am 9
mph
1020.7mb 69f
4:00am 6 7 mph 1020.5mb 68f
3:00am 8 9 mph 1021mb 69f
2:00am 7 8 mph 1021.1mb 69f
1:00am 10
mph
1021.3mb 69f
12:00am 11 13 mph 1021.4mb 69f
Wed 07/20 11:00pm 16 17 mph 1021.5mb 71f
10:00pm 21 22 mph 1021.3mb 71f
9:00pm 20 21 mph 1020.7mb 71f
8:00pm 22 24 mph 1020.2mb 71f
7:00pm 16 17 mph 1020.1mb 71f
6:00pm 17 18 mph 1020mb 71f
5:00pm 21 23 mph 1020.3mb 71f
4:00pm 20 21 mph 1020.8mb 71f
3:00pm 20 21 mph 1021.4mb 71f
2:00pm 16
mph
1021.7mb 70f
1:00pm 11 13 mph 1022.1mb 69f
12:00pm 10
mph
1022.9mb 69f
11:00am 9
mph
1023.5mb 69f
10:00am 6 7 mph 1023.6mb 68f
9:00am 5
mph
1023.7mb 68f
8:00am 9 10 mph 1023.3mb 67f
7:00am 8 10 mph 1022.5mb 67f
6:00am 9 10 mph 1022.1mb 67f
5:00am 8 10 mph 1021.7mb 69f
4:00am 8
mph
1021.7mb 69f